Terminal Aerodrome Forecast
Issued by NWS Wilmington, OH

Home | Current Version | Previous Version | Text Only | Print | Product List | Glossary On
Versions: 1 2 3 4 5 6 7 8 9 10 11 12 13 14 15 16 17 18 19 20 21 22 23 24 25 26
274
FTUS41 KILN 191746
TAFCVG
TAF
KCVG 191746Z 1918/2024 21017G27KT P6SM VCSH SCT025 BKN035
     FM192300 20011KT P6SM SCT050 BKN100
     FM200600 19012G20KT P6SM SCT025 BKN050 WS020/21050KT
     FM201500 20014G22KT P6SM BKN040
     FM201700 20017G30KT P6SM BKN040
     FM202300 20012G20KT P6SM BKN050=

USA.gov is the U.S. government's official web portal to all federal, state and local government web resources and services.